This is the latest recevied weather packets stored in our database for station/object HS1AXC-1. If no packets are shown the sender has not sent any weather packets the latest 10 day(s).
| Time | Temp. | Humidity | Pressure | Rain* | Wind** | Luminosity | Snow |
|---|---|---|---|---|---|---|---|
| 1777316466 | 33.89° C | 78% | 1007 hPa | - | - | 0 W/m² | - |
| 1777315845 | 33.89° C | 79% | 1007 hPa | - | - | 0 W/m² | - |
| 1777315223 | 33.33° C | 81% | 1007 hPa | - | - | 0 W/m² | - |
| 1777314600 | 33.33° C | 82% | 1007 hPa | - | - | 0 W/m² | - |
| 1777313979 | 33.89° C | 77% | 1007 hPa | - | - | 0 W/m² | - |
| 1777313356 | 33.89° C | 77% | 1007 hPa | - | - | 0 W/m² | - |
| 1777312734 | 33.33° C | 78% | 1007 hPa | - | - | 0 W/m² | - |
| 1777312112 | 33.33° C | 79% | 1008 hPa | - | - | 0 W/m² | - |
| 1777311490 | 33.89° C | 77% | 1008 hPa | - | - | 0 W/m² | - |
| 1777310868 | 34.44° C | 74% | 1008 hPa | - | - | 0 W/m² | - |
| 1777310246 | 33.89° C | 77% | 1008 hPa | - | - | 0 W/m² | - |
| 1777309624 | 34.44° C | 76% | 1008 hPa | - | - | 0 W/m² | - |
| 1777309002 | 33.89° C | 76% | 1009 hPa | - | - | 0 W/m² | - |
| 1777308320 | 34.44° C | 74% | 1009 hPa | - | - | 0 W/m² | - |
| 1777307698 | 33.89° C | 77% | 1009 hPa | - | - | 0 W/m² | - |
| 1777307076 | 34.44° C | 73% | 1009 hPa | - | - | 0 W/m² | - |
| 1777306454 | 34.44° C | 73% | 1009 hPa | - | - | 0 W/m² | - |
| 1777305832 | 33.89° C | 77% | 1009 hPa | - | - | 0 W/m² | - |
| 1777305210 | 33.89° C | 78% | 1009 hPa | - | - | 0 W/m² | - |
| 1777304588 | 33.89° C | 77% | 1009 hPa | - | - | 0 W/m² | - |
| 1777303966 | 34.44° C | 74% | 1009 hPa | - | - | 0 W/m² | - |
| 1777303344 | 33.89° C | 79% | 1009 hPa | - | - | 0 W/m² | - |
| 1777302722 | 33.89° C | 77% | 1009 hPa | - | - | 0 W/m² | - |
| 1777302100 | 33.89° C | 76% | 1008 hPa | - | - | 0 W/m² | - |
| 1777301478 | 35° C | 71% | 1008 hPa | - | - | 0 W/m² | - |
* Rain since midnight (hover to see other rain measurements)
** Current wind speed in m/s (hover to see current wind gust speed)